Time;durP1;ratioP1;P1;durP2;ratioP2;P2;SDS_P1;SDS_P2;PMS_P1;PMS_P2;Temp;Humidity;BMP_temperature;BMP_pressure;BME280_temperature;BME280_humidity;BME280_pressure;Samples;Min_cycle;Max_cycle;Signal;HPM_P1;HPM_P2
2023/10/03 00:01:21;;;;;;;12.32;8.00;;;;;;;;;;4950323;28;20219;-87
2023/10/03 00:03:48;;;;;;;10.15;8.43;;;;;;;;;;4904352;29;20598;-86
2023/10/03 00:06:14;;;;;;;11.18;8.70;;;;;;;;;;4935887;28;20759;-85
2023/10/03 00:08:44;;;;;;;9.68;8.70;;;;;;;;;;4938312;28;20227;-85
2023/10/03 00:11:19;;;;;;;9.52;8.27;;;;;;;;;;4908515;28;20285;-86
2023/10/03 00:13:47;;;;;;;10.18;9.18;;;;;;;;;;4938873;29;20239;-85
2023/10/03 00:16:15;;;;;;;11.18;8.52;;;;;;;;;;4937591;28;20265;-85
2023/10/03 00:18:45;;;;;;;10.95;8.90;;;;;;;;;;4936662;28;20227;-85
2023/10/03 00:21:16;;;;;;;9.98;8.43;;;;;;;;;;4921890;28;20684;-87
2023/10/03 00:23:44;;;;;;;10.88;8.95;;;;;;;;;;4928631;28;20226;-86
2023/10/03 00:26:16;;;;;;;10.90;8.40;;;;;;;;;;4950428;28;20222;-86
2023/10/03 00:28:44;;;;;;;10.73;8.48;;;;;;;;;;4917833;29;20326;-86
2023/10/03 00:31:15;;;;;;;9.32;7.88;;;;;;;;;;4935528;28;20875;-86
2023/10/03 00:33:43;;;;;;;9.80;8.77;;;;;;;;;;4941650;28;20329;-85
2023/10/03 00:36:23;;;;;;;9.50;8.48;;;;;;;;;;4932790;28;20210;-86
2023/10/03 00:38:51;;;;;;;9.50;8.43;;;;;;;;;;4938783;29;20228;-86
2023/10/03 00:41:19;;;;;;;11.30;8.52;;;;;;;;;;4921883;28;20235;-85
2023/10/03 00:43:56;;;;;;;13.20;9.40;;;;;;;;;;4913753;29;20243;-86
2023/10/03 00:46:22;;;;;;;10.32;8.60;;;;;;;;;;4934039;28;20255;-86
2023/10/03 00:48:50;;;;;;;9.07;8.25;;;;;;;;;;4937906;29;20266;-87
2023/10/03 00:51:21;;;;;;;13.38;10.10;;;;;;;;;;4937895;28;20227;-87
2023/10/03 00:53:47;;;;;;;11.02;9.25;;;;;;;;;;4905019;29;20238;-87
2023/10/03 00:56:14;;;;;;;15.38;10.98;;;;;;;;;;4927773;28;20237;-88
2023/10/03 00:58:41;;;;;;;12.10;10.45;;;;;;;;;;4919020;29;20305;-86
2023/10/03 01:01:09;;;;;;;12.43;10.48;;;;;;;;;;4920930;28;20244;-87
2023/10/03 01:03:37;;;;;;;10.60;9.38;;;;;;;;;;4932920;29;20294;-87
2023/10/03 01:06:12;;;;;;;13.00;10.63;;;;;;;;;;4930500;28;20234;-87
2023/10/03 01:08:40;;;;;;;12.82;11.18;;;;;;;;;;4917196;29;20286;-87
2023/10/03 01:11:07;;;;;;;12.70;10.48;;;;;;;;;;4918040;28;20284;-86
2023/10/03 01:13:35;;;;;;;11.80;9.93;;;;;;;;;;4936712;28;20215;-90
2023/10/03 01:16:03;;;;;;;11.93;9.98;;;;;;;;;;4917165;29;20320;-87
2023/10/03 01:18:37;;;;;;;10.82;9.75;;;;;;;;;;4923155;28;20629;-87
2023/10/03 01:21:06;;;;;;;12.50;10.10;;;;;;;;;;4937987;28;20233;-87
2023/10/03 01:23:36;;;;;;;10.93;9.80;;;;;;;;;;4921030;29;20226;-88
2023/10/03 01:26:03;;;;;;;12.82;10.27;;;;;;;;;;4923666;29;20289;-86
2023/10/03 01:28:29;;;;;;;11.05;9.63;;;;;;;;;;4919642;29;20223;-88
2023/10/03 01:30:57;;;;;;;12.20;9.93;;;;;;;;;;4910977;28;20322;-86
2023/10/03 01:33:29;;;;;;;10.60;9.45;;;;;;;;;;4936547;28;20278;-88
2023/10/03 01:35:56;;;;;;;12.80;9.00;;;;;;;;;;4929362;28;20857;-87
2023/10/03 01:38:26;;;;;;;13.35;9.80;;;;;;;;;;4919531;28;20223;-87
2023/10/03 01:40:54;;;;;;;10.75;9.30;;;;;;;;;;4936577;29;20241;-87
2023/10/03 01:43:20;;;;;;;9.73;8.60;;;;;;;;;;4918344;28;20230;-87
2023/10/03 01:45:45;;;;;;;10.00;8.82;;;;;;;;;;4937265;29;20222;-87
2023/10/03 01:48:12;;;;;;;9.95;8.95;;;;;;;;;;4910132;28;20647;-86
2023/10/03 01:50:38;;;;;;;10.80;8.88;;;;;;;;;;4933529;28;20215;-87
2023/10/03 01:53:07;;;;;;;11.85;9.55;;;;;;;;;;4954683;28;20234;-86
2023/10/03 01:55:34;;;;;;;10.40;8.90;;;;;;;;;;4953415;28;20239;-87
2023/10/03 01:58:00;;;;;;;11.23;9.05;;;;;;;;;;4950865;29;20383;-86
2023/10/03 02:00:26;;;;;;;12.07;8.60;;;;;;;;;;4937662;28;20302;-86
2023/10/03 02:03:04;;;;;;;10.38;8.80;;;;;;;;;;4939008;29;20233;-87
2023/10/03 02:05:36;;;;;;;11.07;9.55;;;;;;;;;;4955080;28;20284;-87
2023/10/03 02:08:07;;;;;;;11.93;9.55;;;;;;;;;;4954711;28;20229;-86
2023/10/03 02:10:37;;;;;;;15.73;9.52;;;;;;;;;;4944383;28;20221;-86
2023/10/03 02:13:14;;;;;;;17.60;9.77;;;;;;;;;;4929147;29;20293;-86
2023/10/03 02:15:45;;;;;;;9.82;8.82;;;;;;;;;;4937614;28;20294;-87
2023/10/03 02:18:18;;;;;;;12.13;9.60;;;;;;;;;;4919749;28;20244;-87
2023/10/03 02:20:52;;;;;;;12.48;9.02;;;;;;;;;;4949856;28;20231;-88
2023/10/03 02:23:23;;;;;;;11.57;9.32;;;;;;;;;;4968431;28;20258;-87
2023/10/03 02:26:10;;;;;;;10.60;9.60;;;;;;;;;;4959087;29;20283;-89
2023/10/03 02:28:36;;;;;;;10.10;9.05;;;;;;;;;;4920279;29;20710;-87
2023/10/03 02:31:07;;;;;;;14.25;8.82;;;;;;;;;;4918128;29;20227;-87
2023/10/03 02:33:38;;;;;;;9.88;8.52;;;;;;;;;;4949666;28;20234;-87
2023/10/03 02:36:05;;;;;;;11.15;9.00;;;;;;;;;;4907927;28;20246;-87
2023/10/03 02:38:38;;;;;;;11.20;9.05;;;;;;;;;;4936391;28;20223;-86
2023/10/03 02:41:09;;;;;;;11.35;9.05;;;;;;;;;;4928378;28;20220;-87
2023/10/03 02:43:47;;;;;;;9.85;8.30;;;;;;;;;;4940366;29;20230;-87
2023/10/03 02:46:19;;;;;;;10.32;8.40;;;;;;;;;;4941891;28;20229;-86
2023/10/03 02:48:48;;;;;;;9.25;8.23;;;;;;;;;;4940445;29;20220;-87
2023/10/03 02:51:14;;;;;;;9.82;8.27;;;;;;;;;;4930655;28;20223;-87
2023/10/03 02:53:43;;;;;;;9.75;8.68;;;;;;;;;;4934296;28;20231;-87
2023/10/03 02:56:13;;;;;;;10.80;9.60;;;;;;;;;;4948306;28;20726;-88
2023/10/03 02:58:39;;;;;;;11.98;8.48;;;;;;;;;;4941326;28;20222;-88
2023/10/03 03:01:05;;;;;;;11.25;8.90;;;;;;;;;;4920535;28;20715;-88
2023/10/03 03:03:32;;;;;;;10.02;8.95;;;;;;;;;;4940338;29;20794;-87
2023/10/03 03:06:02;;;;;;;10.48;8.68;;;;;;;;;;4936216;29;20767;-87
2023/10/03 03:08:29;;;;;;;10.70;8.85;;;;;;;;;;4907575;28;20219;-87
2023/10/03 03:10:59;;;;;;;11.15;9.35;;;;;;;;;;4909423;29;20223;-89
2023/10/03 03:13:27;;;;;;;10.43;8.65;;;;;;;;;;4921759;28;20696;-88
2023/10/03 03:16:00;;;;;;;10.20;8.35;;;;;;;;;;4933791;29;20259;-88
2023/10/03 03:18:40;;;;;;;11.13;8.60;;;;;;;;;;4919945;28;20249;-88
2023/10/03 03:21:08;;;;;;;11.27;8.65;;;;;;;;;;4939235;28;20230;-86
2023/10/03 03:23:38;;;;;;;11.32;8.52;;;;;;;;;;4933589;29;20218;-88
2023/10/03 03:28:40;;;;;;;9.20;8.30;;;;;;;;;;4942541;28;20229;-87
2023/10/03 03:31:26;;;;;;;14.45;8.80;;;;;;;;;;4904085;29;20254;-89
2023/10/03 03:34:00;;;;;;;9.80;8.77;;;;;;;;;;4934053;29;20250;-88
2023/10/03 03:36:34;;;;;;;11.10;9.05;;;;;;;;;;4923422;28;20709;-87
2023/10/03 03:39:04;;;;;;;11.82;8.73;;;;;;;;;;4925795;28;20223;-87
2023/10/03 03:41:30;;;;;;;12.18;8.63;;;;;;;;;;4933734;28;20222;-88
2023/10/03 03:43:55;;;;;;;11.15;8.32;;;;;;;;;;4936536;29;20211;-87
2023/10/03 03:46:21;;;;;;;10.45;8.13;;;;;;;;;;4908852;28;20231;-86
2023/10/03 03:48:47;;;;;;;10.20;8.45;;;;;;;;;;4917861;29;20249;-86
2023/10/03 03:51:14;;;;;;;10.38;8.63;;;;;;;;;;4940697;28;20227;-88
2023/10/03 03:53:41;;;;;;;13.05;9.10;;;;;;;;;;4978004;28;20230;-89
2023/10/03 03:56:13;;;;;;;10.88;8.30;;;;;;;;;;4960325;28;20227;-89
2023/10/03 03:58:40;;;;;;;9.23;7.72;;;;;;;;;;4920189;29;20243;-89
2023/10/03 04:04:53;;;;;;;11.85;8.00;;;;;;;;;;4972378;28;20230;-89
2023/10/03 04:07:18;;;;;;;8.68;7.82;;;;;;;;;;4911214;28;20224;-88
2023/10/03 04:09:45;;;;;;;10.20;8.30;;;;;;;;;;4949589;28;20215;-86
2023/10/03 04:12:13;;;;;;;14.00;8.52;;;;;;;;;;4941184;28;20740;-90
2023/10/03 04:14:38;;;;;;;10.77;8.13;;;;;;;;;;4933127;29;20302;-88
2023/10/03 04:17:04;;;;;;;10.25;8.13;;;;;;;;;;4922105;28;20696;-88
2023/10/03 04:19:30;;;;;;;10.48;8.55;;;;;;;;;;4932446;28;20577;-88
2023/10/03 04:21:55;;;;;;;9.95;8.63;;;;;;;;;;4921523;28;20209;-89
2023/10/03 04:24:21;;;;;;;12.85;8.73;;;;;;;;;;4960466;28;20225;-88
2023/10/03 04:26:47;;;;;;;12.23;8.65;;;;;;;;;;4942266;29;20232;-87
2023/10/03 04:29:13;;;;;;;10.98;8.35;;;;;;;;;;4915913;28;20262;-88
2023/10/03 04:31:40;;;;;;;10.80;8.68;;;;;;;;;;4922216;29;20652;-87
2023/10/03 04:34:07;;;;;;;10.60;8.40;;;;;;;;;;4934237;29;20223;-88
2023/10/03 04:36:34;;;;;;;10.77;8.77;;;;;;;;;;4922103;29;20235;-87
2023/10/03 04:39:01;;;;;;;8.75;7.75;;;;;;;;;;4934373;29;20227;-89
2023/10/03 04:41:28;;;;;;;11.75;8.60;;;;;;;;;;4958088;28;20230;-88
2023/10/03 04:43:55;;;;;;;11.80;8.45;;;;;;;;;;4924927;29;20607;-88
2023/10/03 04:46:21;;;;;;;11.25;8.88;;;;;;;;;;4957100;28;20210;-89
2023/10/03 04:48:46;;;;;;;10.95;9.23;;;;;;;;;;4938672;29;20238;-87
2023/10/03 04:51:14;;;;;;;9.38;8.13;;;;;;;;;;4925474;28;20222;-88
2023/10/03 04:53:41;;;;;;;12.15;9.10;;;;;;;;;;4942866;28;20258;-88
2023/10/03 04:56:07;;;;;;;11.30;8.77;;;;;;;;;;4919524;29;20236;-88
2023/10/03 04:58:32;;;;;;;9.52;8.15;;;;;;;;;;4925224;29;20239;-87
2023/10/03 05:00:58;;;;;;;11.15;9.27;;;;;;;;;;4916509;29;20777;-88
2023/10/03 05:03:25;;;;;;;11.48;9.48;;;;;;;;;;4930369;28;20700;-87
2023/10/03 05:05:52;;;;;;;11.52;9.80;;;;;;;;;;4917224;29;20222;-88
2023/10/03 05:08:18;;;;;;;10.02;8.98;;;;;;;;;;4921792;29;20219;-87
2023/10/03 05:10:44;;;;;;;9.90;8.88;;;;;;;;;;4959066;28;20697;-89
2023/10/03 05:13:10;;;;;;;11.82;9.02;;;;;;;;;;4925565;28;20341;-88
2023/10/03 05:15:35;;;;;;;11.73;8.32;;;;;;;;;;4942936;29;20214;-87
2023/10/03 05:18:03;;;;;;;15.90;9.27;;;;;;;;;;4924476;29;20236;-87
2023/10/03 05:20:37;;;;;;;9.88;8.68;;;;;;;;;;4913510;28;20765;-87
2023/10/03 05:23:04;;;;;;;11.15;9.10;;;;;;;;;;4918760;28;20754;-87
2023/10/03 05:25:30;;;;;;;11.88;9.57;;;;;;;;;;4922576;29;20646;-88
2023/10/03 05:27:55;;;;;;;10.30;9.27;;;;;;;;;;4938835;29;20223;-87
2023/10/03 05:30:23;;;;;;;12.55;9.35;;;;;;;;;;4942391;28;20223;-87
2023/10/03 05:32:48;;;;;;;12.73;9.05;;;;;;;;;;4942279;29;20227;-87
2023/10/03 05:35:17;;;;;;;12.70;9.48;;;;;;;;;;4922041;28;20223;-87
2023/10/03 05:37:43;;;;;;;17.38;9.85;;;;;;;;;;4943586;28;20242;-87
2023/10/03 05:40:11;;;;;;;14.52;10.10;;;;;;;;;;4932982;28;20231;-88
2023/10/03 05:42:40;;;;;;;13.50;9.55;;;;;;;;;;4947287;29;20692;-88
2023/10/03 05:45:12;;;;;;;10.38;9.30;;;;;;;;;;4949763;28;20222;-88
2023/10/03 05:47:44;;;;;;;12.18;9.32;;;;;;;;;;4942676;28;20206;-86
2023/10/03 05:50:20;;;;;;;13.70;9.55;;;;;;;;;;4918977;28;20239;-86
2023/10/03 05:52:46;;;;;;;11.60;9.00;;;;;;;;;;4958284;28;20238;-86
2023/10/03 05:55:12;;;;;;;11.25;9.85;;;;;;;;;;4916617;28;20224;-84
2023/10/03 05:57:41;;;;;;;10.63;9.07;;;;;;;;;;4914339;29;20630;-87
2023/10/03 06:00:10;;;;;;;15.18;9.23;;;;;;;;;;4943744;28;20246;-85
2023/10/03 06:02:38;;;;;;;11.60;9.18;;;;;;;;;;4966973;28;20234;-90
2023/10/03 06:05:06;;;;;;;12.27;9.07;;;;;;;;;;4947976;28;20239;-86
2023/10/03 06:07:32;;;;;;;12.95;10.25;;;;;;;;;;4927379;29;20305;-87
2023/10/03 06:09:58;;;;;;;12.35;9.18;;;;;;;;;;4958301;28;20259;-86
2023/10/03 06:12:24;;;;;;;17.35;9.77;;;;;;;;;;4927118;28;20234;-87
2023/10/03 06:14:52;;;;;;;13.80;9.90;;;;;;;;;;4939264;29;20231;-87
2023/10/03 06:17:18;;;;;;;10.80;9.68;;;;;;;;;;4926950;28;20284;-88
2023/10/03 06:19:50;;;;;;;11.70;9.20;;;;;;;;;;4909686;29;20855;-86
2023/10/03 06:22:18;;;;;;;12.45;8.63;;;;;;;;;;4957653;28;20239;-87
2023/10/03 06:24:45;;;;;;;13.43;10.30;;;;;;;;;;4942983;28;20216;-86
2023/10/03 06:27:13;;;;;;;14.25;9.57;;;;;;;;;;4934035;28;20221;-86
2023/10/03 06:29:43;;;;;;;11.60;9.00;;;;;;;;;;4939464;28;20701;-86
2023/10/03 06:32:13;;;;;;;11.75;9.05;;;;;;;;;;4947135;28;20230;-86
2023/10/03 06:34:41;;;;;;;11.70;9.02;;;;;;;;;;4929190;29;20235;-86
2023/10/03 06:37:11;;;;;;;11.48;9.35;;;;;;;;;;4931869;28;20592;-89
2023/10/03 06:39:37;;;;;;;13.27;10.18;;;;;;;;;;4926547;29;20249;-86
2023/10/03 06:42:06;;;;;;;11.95;8.73;;;;;;;;;;4949920;28;20223;-84
2023/10/03 06:44:31;;;;;;;10.13;8.38;;;;;;;;;;4923932;29;20269;-88
2023/10/03 06:46:57;;;;;;;11.80;9.40;;;;;;;;;;4939032;29;20475;-89
2023/10/03 06:49:23;;;;;;;10.90;9.25;;;;;;;;;;4912510;28;20218;-87
2023/10/03 06:51:50;;;;;;;14.93;9.73;;;;;;;;;;4940404;29;20700;-87
2023/10/03 06:54:18;;;;;;;13.73;9.68;;;;;;;;;;4919906;28;20246;-85
2023/10/03 06:56:44;;;;;;;12.40;9.15;;;;;;;;;;4933503;28;20221;-85
2023/10/03 06:59:15;;;;;;;11.73;8.98;;;;;;;;;;4939599;28;20227;-87
2023/10/03 07:01:41;;;;;;;11.40;8.82;;;;;;;;;;4902076;29;20230;-85
2023/10/03 07:04:06;;;;;;;13.70;9.15;;;;;;;;;;4943412;28;20216;-86
2023/10/03 07:06:34;;;;;;;14.15;9.98;;;;;;;;;;4941446;28;20218;-84
2023/10/03 07:09:07;;;;;;;12.15;9.23;;;;;;;;;;4924658;28;20234;-86
2023/10/03 07:11:35;;;;;;;13.00;9.48;;;;;;;;;;4942449;28;20219;-87
2023/10/03 07:14:01;;;;;;;12.50;8.95;;;;;;;;;;4935465;28;20275;-86
2023/10/03 07:16:30;;;;;;;13.65;9.38;;;;;;;;;;4952644;28;20223;-85
2023/10/03 07:18:55;;;;;;;18.27;9.68;;;;;;;;;;4936598;28;20226;-85
2023/10/03 07:21:22;;;;;;;9.88;8.60;;;;;;;;;;4914351;28;20647;-88
2023/10/03 07:23:47;;;;;;;11.73;9.05;;;;;;;;;;4938618;28;20238;-84
2023/10/03 07:26:16;;;;;;;12.27;9.27;;;;;;;;;;4936483;28;20219;-88
2023/10/03 07:28:41;;;;;;;12.52;9.40;;;;;;;;;;4936959;29;20214;-86
2023/10/03 07:31:13;;;;;;;10.70;9.25;;;;;;;;;;4937087;28;20255;-88
2023/10/03 07:33:43;;;;;;;9.77;8.82;;;;;;;;;;4945785;28;20227;-87
2023/10/03 07:36:12;;;;;;;11.07;9.30;;;;;;;;;;4956234;28;20227;-87
2023/10/03 07:38:42;;;;;;;11.00;9.25;;;;;;;;;;4941350;29;20234;-88
2023/10/03 07:41:13;;;;;;;9.98;8.75;;;;;;;;;;4933280;28;20226;-86
2023/10/03 07:43:42;;;;;;;10.90;8.82;;;;;;;;;;4931599;29;20231;-85
2023/10/03 07:46:10;;;;;;;14.45;9.98;;;;;;;;;;4923722;28;20235;-87
2023/10/03 07:48:38;;;;;;;10.15;9.23;;;;;;;;;;4912317;29;20226;-87
2023/10/03 07:51:07;;;;;;;17.23;9.57;;;;;;;;;;4926935;28;20294;-86
2023/10/03 07:53:36;;;;;;;10.18;8.82;;;;;;;;;;4924241;29;20238;-89
2023/10/03 07:56:01;;;;;;;10.27;8.95;;;;;;;;;;4923728;29;20645;-87
2023/10/03 07:58:32;;;;;;;9.80;8.80;;;;;;;;;;4932067;28;20223;-87
2023/10/03 08:00:58;;;;;;;11.32;8.00;;;;;;;;;;4922479;28;20228;-87
2023/10/03 08:03:28;;;;;;;14.57;9.55;;;;;;;;;;4938367;28;20297;-87
2023/10/03 08:05:57;;;;;;;12.13;9.13;;;;;;;;;;4934357;29;20215;-88
2023/10/03 08:08:22;;;;;;;12.00;8.60;;;;;;;;;;4925131;28;20728;-87
2023/10/03 08:10:50;;;;;;;14.27;8.77;;;;;;;;;;4920769;28;20759;-87
2023/10/03 08:13:17;;;;;;;12.70;8.98;;;;;;;;;;4940742;28;20211;-87
2023/10/03 08:15:43;;;;;;;13.05;8.68;;;;;;;;;;4929268;29;20227;-88
2023/10/03 08:18:17;;;;;;;10.60;8.55;;;;;;;;;;4940852;28;20222;-87
2023/10/03 08:20:44;;;;;;;14.32;8.95;;;;;;;;;;4916886;29;20234;-87
2023/10/03 08:23:18;;;;;;;11.00;8.70;;;;;;;;;;4941233;28;20215;-87
2023/10/03 08:25:43;;;;;;;12.45;8.93;;;;;;;;;;4907166;29;20226;-85
2023/10/03 08:28:10;;;;;;;12.18;7.93;;;;;;;;;;4928627;28;20218;-88
2023/10/03 08:30:35;;;;;;;11.45;8.18;;;;;;;;;;4939649;29;20253;-87
2023/10/03 08:33:04;;;;;;;10.80;8.25;;;;;;;;;;4940025;28;20218;-86
2023/10/03 08:35:39;;;;;;;11.90;8.30;;;;;;;;;;4922815;28;20218;-87
2023/10/03 08:38:09;;;;;;;11.25;8.48;;;;;;;;;;4946174;28;20306;-84
2023/10/03 08:40:39;;;;;;;15.15;8.70;;;;;;;;;;4931093;29;20227;-85
2023/10/03 08:43:08;;;;;;;15.25;7.85;;;;;;;;;;4918132;28;20250;-84
2023/10/03 08:45:40;;;;;;;10.93;7.30;;;;;;;;;;4937269;28;20227;-86
2023/10/03 08:48:06;;;;;;;9.27;7.88;;;;;;;;;;4941858;28;20317;-87
2023/10/03 08:50:46;;;;;;;13.95;8.40;;;;;;;;;;4929775;29;20232;-84
2023/10/03 08:53:26;;;;;;;10.40;7.72;;;;;;;;;;4938252;28;20692;-84
2023/10/03 08:55:52;;;;;;;8.05;7.20;;;;;;;;;;4939814;28;20222;-84
2023/10/03 08:58:25;;;;;;;11.52;7.97;;;;;;;;;;4949705;28;20234;-85
2023/10/03 09:00:58;;;;;;;10.70;7.65;;;;;;;;;;4956316;28;20329;-83
2023/10/03 09:03:46;;;;;;;11.18;7.75;;;;;;;;;;4960986;28;20218;-88
2023/10/03 09:06:19;;;;;;;9.40;7.13;;;;;;;;;;4961041;28;20221;-86
2023/10/03 09:08:48;;;;;;;10.45;7.28;;;;;;;;;;4937763;29;20234;-87
2023/10/03 09:11:13;;;;;;;9.27;7.20;;;;;;;;;;4940752;28;20223;-86
2023/10/03 09:13:45;;;;;;;13.32;6.88;;;;;;;;;;4941305;29;20222;-86
2023/10/03 09:16:15;;;;;;;9.68;7.00;;;;;;;;;;4954743;28;20312;-85
2023/10/03 09:18:41;;;;;;;12.00;7.03;;;;;;;;;;4940972;29;20235;-88
2023/10/03 09:21:23;;;;;;;9.30;7.00;;;;;;;;;;4921701;29;20260;-87
2023/10/03 09:24:09;;;;;;;9.75;6.85;;;;;;;;;;4929554;29;20222;-86
2023/10/03 09:26:51;;;;;;;12.43;6.70;;;;;;;;;;4925611;29;20223;-85
2023/10/03 09:29:29;;;;;;;13.55;6.55;;;;;;;;;;4922853;28;20226;-83
2023/10/03 09:31:58;;;;;;;9.63;6.07;;;;;;;;;;4949154;29;20231;-84
2023/10/03 09:34:30;;;;;;;9.00;5.70;;;;;;;;;;4962568;28;20235;-87
2023/10/03 09:37:05;;;;;;;7.03;5.25;;;;;;;;;;4942974;28;20246;-86
2023/10/03 09:39:39;;;;;;;8.80;5.90;;;;;;;;;;4948856;28;20261;-86
2023/10/03 09:42:15;;;;;;;10.00;5.07;;;;;;;;;;4946120;28;20226;-85
2023/10/03 09:44:45;;;;;;;7.65;5.50;;;;;;;;;;4930079;29;20230;-86
2023/10/03 09:47:13;;;;;;;9.05;5.63;;;;;;;;;;4944957;28;20225;-85
2023/10/03 09:49:39;;;;;;;8.70;5.20;;;;;;;;;;4928697;29;20222;-84
2023/10/03 09:52:22;;;;;;;4.75;4.32;;;;;;;;;;4920416;28;20199;-84
2023/10/03 09:55:00;;;;;;;7.63;4.60;;;;;;;;;;4939394;29;20242;-87
2023/10/03 09:57:29;;;;;;;8.75;5.10;;;;;;;;;;4922959;28;20756;-86
2023/10/03 10:00:00;;;;;;;6.05;3.92;;;;;;;;;;4940129;28;20278;-85
2023/10/03 10:02:31;;;;;;;4.88;3.47;;;;;;;;;;4936369;28;20830;-84
2023/10/03 10:04:59;;;;;;;3.75;3.08;;;;;;;;;;4920142;29;20218;-83
2023/10/03 10:07:34;;;;;;;5.10;2.85;;;;;;;;;;4906201;28;20231;-86
2023/10/03 10:10:12;;;;;;;4.10;2.65;;;;;;;;;;4952000;28;20289;-85
2023/10/03 10:12:37;;;;;;;2.90;2.15;;;;;;;;;;4920592;29;20604;-86
2023/10/03 10:17:45;;;;;;;3.38;2.13;;;;;;;;;;4952171;28;20311;-84
2023/10/03 10:20:38;;;;;;;5.18;2.05;;;;;;;;;;4960936;28;20430;-87
2023/10/03 10:25:41;;;;;;;4.50;2.30;;;;;;;;;;4984840;28;20471;-87
2023/10/03 10:28:11;;;;;;;4.30;2.05;;;;;;;;;;4953868;28;20684;-86
2023/10/03 10:30:42;;;;;;;5.22;2.30;;;;;;;;;;4925467;29;20291;-87
2023/10/03 10:33:18;;;;;;;6.60;1.65;;;;;;;;;;4934488;28;20218;-86
2023/10/03 10:35:59;;;;;;;5.55;1.85;;;;;;;;;;4964105;28;20245;-87
2023/10/03 10:38:31;;;;;;;4.90;2.10;;;;;;;;;;4952212;28;20716;-85
2023/10/03 10:41:12;;;;;;;4.40;2.10;;;;;;;;;;4953415;28;20223;-86
2023/10/03 10:44:09;;;;;;;3.95;1.73;;;;;;;;;;4981470;28;20355;-86
2023/10/03 10:46:39;;;;;;;5.28;2.03;;;;;;;;;;4966901;28;20695;-85
2023/10/03 10:49:37;;;;;;;3.70;1.88;;;;;;;;;;4949258;28;20245;-86
2023/10/03 10:52:06;;;;;;;4.13;2.00;;;;;;;;;;4962348;28;20346;-85
2023/10/03 10:54:44;;;;;;;3.88;2.20;;;;;;;;;;4922243;29;20217;-86
2023/10/03 10:57:14;;;;;;;2.65;1.70;;;;;;;;;;4940616;28;20274;-83
2023/10/03 10:59:40;;;;;;;4.20;2.13;;;;;;;;;;4943739;29;20242;-85
2023/10/03 11:02:26;;;;;;;4.22;1.60;;;;;;;;;;4924047;28;20265;-85
2023/10/03 11:04:58;;;;;;;3.60;2.13;;;;;;;;;;4940225;28;20223;-85
2023/10/03 11:07:27;;;;;;;3.17;2.10;;;;;;;;;;4920983;28;20223;-85
2023/10/03 11:09:55;;;;;;;3.58;2.08;;;;;;;;;;4922300;29;20222;-85
2023/10/03 11:12:29;;;;;;;2.85;1.77;;;;;;;;;;4919397;28;20223;-84
2023/10/03 11:14:57;;;;;;;3.75;2.25;;;;;;;;;;4939431;28;20299;-85
2023/10/03 11:17:24;;;;;;;2.33;1.77;;;;;;;;;;4937602;28;20297;-87
2023/10/03 11:19:53;;;;;;;4.68;2.25;;;;;;;;;;4928638;29;20347;-87
2023/10/03 11:22:18;;;;;;;6.55;2.10;;;;;;;;;;4956473;28;20207;-87
2023/10/03 11:24:48;;;;;;;5.97;1.85;;;;;;;;;;4911535;29;20250;-87
2023/10/03 11:27:31;;;;;;;2.63;2.15;;;;;;;;;;4970934;28;20269;-87
2023/10/03 11:29:59;;;;;;;3.33;2.03;;;;;;;;;;4951913;28;20635;-87
2023/10/03 11:32:33;;;;;;;2.95;1.80;;;;;;;;;;4931776;28;20262;-88
2023/10/03 11:35:25;;;;;;;2.83;1.88;;;;;;;;;;4958601;29;20249;-84
2023/10/03 11:37:52;;;;;;;2.58;1.90;;;;;;;;;;4941263;29;20223;-88
2023/10/03 11:40:23;;;;;;;3.42;1.88;;;;;;;;;;4936810;28;20220;-87
2023/10/03 11:42:53;;;;;;;3.25;1.98;;;;;;;;;;4938084;28;20226;-86
2023/10/03 11:45:23;;;;;;;3.35;2.08;;;;;;;;;;4922443;28;20725;-86
2023/10/03 11:48:10;;;;;;;3.63;2.20;;;;;;;;;;4950331;29;20227;-84
2023/10/03 11:50:39;;;;;;;3.30;2.15;;;;;;;;;;4956932;29;20222;-86
2023/10/03 11:53:05;;;;;;;5.32;2.85;;;;;;;;;;4936356;28;20898;-84
2023/10/03 11:55:36;;;;;;;3.78;2.50;;;;;;;;;;4941102;29;21298;-86
2023/10/03 11:58:02;;;;;;;2.83;2.60;;;;;;;;;;4937755;28;20259;-85
2023/10/03 12:00:28;;;;;;;3.33;2.47;;;;;;;;;;4935884;28;20290;-85
2023/10/03 12:02:53;;;;;;;3.17;2.83;;;;;;;;;;4937063;29;20223;-87
2023/10/03 12:05:26;;;;;;;3.78;2.85;;;;;;;;;;4953899;28;20221;-86
2023/10/03 12:07:56;;;;;;;4.45;2.90;;;;;;;;;;4924190;28;20230;-87
2023/10/03 12:10:24;;;;;;;5.68;3.40;;;;;;;;;;4908898;28;20239;-86
2023/10/03 12:12:50;;;;;;;6.30;3.30;;;;;;;;;;4925809;28;20238;-87
2023/10/03 12:15:20;;;;;;;2.90;2.13;;;;;;;;;;4936872;28;20207;-88
2023/10/03 12:17:46;;;;;;;2.05;1.88;;;;;;;;;;4930403;28;20242;-88
2023/10/03 12:20:14;;;;;;;3.40;2.08;;;;;;;;;;4952193;28;20230;-87
2023/10/03 12:22:45;;;;;;;3.00;1.65;;;;;;;;;;4923402;28;20282;-87
2023/10/03 12:25:11;;;;;;;4.80;2.10;;;;;;;;;;4940992;28;20598;-85
2023/10/03 12:27:38;;;;;;;2.45;1.85;;;;;;;;;;4924496;29;20223;-87
2023/10/03 12:30:10;;;;;;;3.88;2.03;;;;;;;;;;4940585;28;20218;-89
2023/10/03 12:32:42;;;;;;;2.15;1.55;;;;;;;;;;4936715;29;20875;-86
2023/10/03 12:35:08;;;;;;;4.60;1.52;;;;;;;;;;4940527;28;20227;-88
2023/10/03 12:37:35;;;;;;;3.22;1.75;;;;;;;;;;4931126;29;20287;-88
2023/10/03 12:40:18;;;;;;;3.92;1.60;;;;;;;;;;4924350;29;20219;-83
2023/10/03 12:42:48;;;;;;;2.78;1.33;;;;;;;;;;4942319;28;20234;-86
2023/10/03 12:45:16;;;;;;;4.68;1.52;;;;;;;;;;4905622;28;20223;-86
2023/10/03 12:47:48;;;;;;;2.15;1.35;;;;;;;;;;4939886;29;20251;-85
2023/10/03 12:50:19;;;;;;;3.05;1.70;;;;;;;;;;4939486;28;20215;-85
2023/10/03 12:52:48;;;;;;;3.47;1.38;;;;;;;;;;4938915;28;20235;-87
2023/10/03 12:55:15;;;;;;;2.70;1.45;;;;;;;;;;4956170;28;20758;-85
2023/10/03 12:57:42;;;;;;;2.55;1.40;;;;;;;;;;4931251;29;20247;-88
2023/10/03 13:00:08;;;;;;;1.30;0.70;;;;;;;;;;4916855;28;20227;-86
2023/10/03 13:02:34;;;;;;;1.30;0.70;;;;;;;;;;4942618;29;20255;-86
2023/10/03 13:04:59;;;;;;;3.67;1.15;;;;;;;;;;4928792;29;20219;-87
2023/10/03 13:07:25;;;;;;;5.00;0.77;;;;;;;;;;4927253;28;20230;-87
2023/10/03 13:09:54;;;;;;;1.73;0.60;;;;;;;;;;4925922;29;20234;-86
2023/10/03 13:12:20;;;;;;;2.08;0.77;;;;;;;;;;4944547;28;20302;-87
2023/10/03 13:14:48;;;;;;;1.65;0.60;;;;;;;;;;4938852;29;20254;-85
2023/10/03 13:17:18;;;;;;;3.65;0.70;;;;;;;;;;4938752;28;20230;-85
2023/10/03 13:19:47;;;;;;;1.77;0.80;;;;;;;;;;4938911;28;20246;-87
2023/10/03 13:22:12;;;;;;;2.25;0.68;;;;;;;;;;4932633;28;20219;-87
2023/10/03 13:24:39;;;;;;;1.65;0.77;;;;;;;;;;4907114;29;20223;-88
2023/10/03 13:27:08;;;;;;;4.53;1.35;;;;;;;;;;4938781;28;20606;-88
2023/10/03 13:29:34;;;;;;;4.53;1.40;;;;;;;;;;4939218;28;20219;-87
2023/10/03 13:32:01;;;;;;;11.68;1.20;;;;;;;;;;4939120;29;20353;-86
2023/10/03 13:34:32;;;;;;;2.70;0.90;;;;;;;;;;4927157;29;20226;-87
2023/10/03 13:36:59;;;;;;;2.05;0.68;;;;;;;;;;4920139;29;20681;-87
2023/10/03 13:39:27;;;;;;;1.77;0.85;;;;;;;;;;4937289;28;20317;-85
2023/10/03 13:41:53;;;;;;;1.90;0.65;;;;;;;;;;4938713;29;20235;-87
2023/10/03 13:44:19;;;;;;;1.63;0.70;;;;;;;;;;4910462;28;20273;-86
2023/10/03 13:46:46;;;;;;;1.13;0.63;;;;;;;;;;4927734;28;20242;-85
2023/10/03 13:49:15;;;;;;;1.00;0.68;;;;;;;;;;4907253;28;20226;-86
2023/10/03 13:51:44;;;;;;;1.02;0.90;;;;;;;;;;4939982;29;20237;-86
2023/10/03 13:54:10;;;;;;;1.50;0.70;;;;;;;;;;4939849;28;20222;-88
2023/10/03 13:56:35;;;;;;;2.45;1.00;;;;;;;;;;4920481;29;20223;-86
2023/10/03 13:59:03;;;;;;;4.82;0.80;;;;;;;;;;4924216;29;20267;-87
2023/10/03 14:01:32;;;;;;;1.55;0.70;;;;;;;;;;4934840;29;20250;-88
2023/10/03 14:03:57;;;;;;;1.75;0.60;;;;;;;;;;4955649;29;20321;-87
2023/10/03 14:06:25;;;;;;;2.45;0.95;;;;;;;;;;4935910;28;20235;-86
2023/10/03 14:08:53;;;;;;;2.72;0.90;;;;;;;;;;4944922;29;20241;-87
2023/10/03 14:11:20;;;;;;;2.67;0.90;;;;;;;;;;4945393;28;20222;-89
2023/10/03 14:13:50;;;;;;;1.65;0.90;;;;;;;;;;4940233;28;20235;-87
2023/10/03 14:16:21;;;;;;;1.42;0.70;;;;;;;;;;4944433;28;20219;-87
2023/10/03 14:18:47;;;;;;;2.70;0.70;;;;;;;;;;4938583;28;20243;-86
2023/10/03 14:21:16;;;;;;;1.40;0.70;;;;;;;;;;4940766;28;20218;-86
2023/10/03 14:23:41;;;;;;;2.63;0.70;;;;;;;;;;4928230;29;20233;-86
2023/10/03 14:26:09;;;;;;;2.17;0.95;;;;;;;;;;4921991;28;20220;-87
2023/10/03 14:28:34;;;;;;;0.95;0.55;;;;;;;;;;4944624;29;20642;-86
2023/10/03 14:31:04;;;;;;;1.88;0.90;;;;;;;;;;4940670;28;20782;-85
2023/10/03 14:33:30;;;;;;;2.42;0.90;;;;;;;;;;4926634;29;20227;-87
2023/10/03 14:36:03;;;;;;;1.02;0.70;;;;;;;;;;4911043;29;20230;-86
2023/10/03 14:38:32;;;;;;;4.43;1.00;;;;;;;;;;4944139;28;20230;-89
2023/10/03 14:40:58;;;;;;;1.50;0.60;;;;;;;;;;4924577;29;20242;-87
2023/10/03 14:43:31;;;;;;;2.30;0.90;;;;;;;;;;4907239;28;20231;-88
2023/10/03 14:46:00;;;;;;;1.42;0.82;;;;;;;;;;4914508;29;20234;-86
2023/10/03 14:48:26;;;;;;;2.83;1.05;;;;;;;;;;4932696;28;20707;-87
2023/10/03 14:50:59;;;;;;;1.85;1.00;;;;;;;;;;4934872;29;20227;-85
2023/10/03 14:53:28;;;;;;;2.42;0.82;;;;;;;;;;4958307;28;20584;-85
2023/10/03 14:55:58;;;;;;;1.92;1.38;;;;;;;;;;4939558;29;20226;-84
2023/10/03 14:58:25;;;;;;;3.75;1.55;;;;;;;;;;4943745;28;20600;-85
2023/10/03 15:00:55;;;;;;;4.15;1.50;;;;;;;;;;4947732;28;20231;-84